createdAt,value
2019-03-25T00:02:17.488Z,25.20
2019-03-25T00:04:45.652Z,26.47
2019-03-25T00:07:13.420Z,24.73
2019-03-25T00:09:41.588Z,25.93
2019-03-25T00:12:09.378Z,23.53
2019-03-25T00:14:37.177Z,24.67
2019-03-25T00:17:05.413Z,24.27
2019-03-25T00:19:33.112Z,22.63
2019-03-25T00:22:01.231Z,23.30
2019-03-25T00:24:38.304Z,24.43
2019-03-25T00:26:58.652Z,24.40
2019-03-25T00:29:27.892Z,23.83
2019-03-25T00:31:57.807Z,23.00
2019-03-25T00:34:27.421Z,23.40
2019-03-25T00:36:55.384Z,22.87
2019-03-25T00:39:23.204Z,22.07
2019-03-25T00:41:51.427Z,21.37
2019-03-25T00:44:20.343Z,21.13
2019-03-25T00:46:48.251Z,22.20
2019-03-25T00:49:17.382Z,22.13
2019-03-25T00:51:45.450Z,21.63
2019-03-25T00:54:14.332Z,20.53
2019-03-25T00:56:42.132Z,21.70
2019-03-25T00:59:09.928Z,18.33
2019-03-25T01:01:37.796Z,20.33
2019-03-25T01:04:05.669Z,21.20
2019-03-25T01:06:33.778Z,21.27
2019-03-25T01:09:01.557Z,19.77
2019-03-25T01:11:29.332Z,21.13
2019-03-25T01:13:57.121Z,22.40
2019-03-25T01:16:25.287Z,24.27
2019-03-25T01:18:53.400Z,21.27
2019-03-25T01:21:21.479Z,20.90
2019-03-25T01:23:49.255Z,21.33
2019-03-25T01:26:17.420Z,22.33
2019-03-25T01:28:45.088Z,20.00
2019-03-25T01:31:12.897Z,20.37
2019-03-25T01:33:41.222Z,21.03
2019-03-25T01:36:09.804Z,20.37
2019-03-25T01:38:37.871Z,19.60
2019-03-25T01:41:05.949Z,20.10
2019-03-25T01:43:34.118Z,21.13
2019-03-25T01:46:02.011Z,20.50
2019-03-25T01:48:29.789Z,19.60
2019-03-25T01:50:57.576Z,18.43
2019-03-25T01:53:26.098Z,20.20
2019-03-25T01:55:54.166Z,20.73
2019-03-25T01:58:22.551Z,20.60
2019-03-25T02:00:50.354Z,18.77
2019-03-25T02:03:18.208Z,18.87
2019-03-25T02:05:46.029Z,18.67
2019-03-25T02:08:14.132Z,19.00
2019-03-25T02:10:42.276Z,18.70
2019-03-25T02:13:10.062Z,18.67
2019-03-25T02:15:37.776Z,18.87
2019-03-25T02:18:05.987Z,16.73
2019-03-25T02:20:33.801Z,15.90
2019-03-25T02:23:01.812Z,16.47
2019-03-25T02:25:30.104Z,16.03
2019-03-25T02:27:58.584Z,15.80
2019-03-25T02:30:26.518Z,15.67
2019-03-25T02:32:54.816Z,16.53
2019-03-25T02:35:24.069Z,16.23
2019-03-25T02:37:51.930Z,14.37
2019-03-25T02:40:19.850Z,14.07
2019-03-25T02:42:47.831Z,14.97
2019-03-25T02:45:15.668Z,13.53
2019-03-25T02:47:43.587Z,13.10
2019-03-25T02:50:12.196Z,14.20
2019-03-25T02:52:40.022Z,14.07
2019-03-25T02:55:07.861Z,12.47
2019-03-25T02:57:35.755Z,13.63
2019-03-25T03:00:05.772Z,13.23
2019-03-25T03:02:33.566Z,12.93
2019-03-25T03:05:01.918Z,13.13
2019-03-25T03:07:29.755Z,12.33
2019-03-25T03:09:57.837Z,12.40
2019-03-25T03:12:26.486Z,12.90
2019-03-25T03:14:54.263Z,13.10
2019-03-25T03:17:22.040Z,14.10
2019-03-25T03:19:49.836Z,12.33
2019-03-25T03:22:17.711Z,14.40
2019-03-25T03:24:45.631Z,13.67
2019-03-25T03:27:13.470Z,16.17
2019-03-25T03:29:41.332Z,13.80
2019-03-25T03:32:09.124Z,13.80
2019-03-25T03:34:36.977Z,14.23
2019-03-25T03:37:04.995Z,14.17
2019-03-25T03:39:32.790Z,13.40
2019-03-25T03:42:00.765Z,13.30
2019-03-25T03:44:28.885Z,13.10
2019-03-25T03:46:56.703Z,14.20
2019-03-25T03:49:24.553Z,14.03
2019-03-25T03:51:54.116Z,13.77
2019-03-25T03:54:22.213Z,13.40
2019-03-25T03:56:51.897Z,13.00
2019-03-25T03:59:19.867Z,12.73
2019-03-25T04:01:48.447Z,13.70
2019-03-25T04:04:16.690Z,13.50
2019-03-25T04:06:44.799Z,13.33
2019-03-25T04:09:12.967Z,12.77
2019-03-25T04:11:40.768Z,13.73
2019-03-25T04:14:08.932Z,12.17
2019-03-25T04:16:37.181Z,13.47
2019-03-25T04:19:04.994Z,13.33
2019-03-25T04:21:33.624Z,13.23
2019-03-25T04:24:01.401Z,13.20
2019-03-25T04:26:29.662Z,12.27
2019-03-25T04:28:57.973Z,13.60
2019-03-25T04:31:25.764Z,14.50
2019-03-25T04:33:53.901Z,13.60
2019-03-25T04:36:21.696Z,13.07
2019-03-25T04:38:49.477Z,14.73
2019-03-25T04:41:17.319Z,14.17
2019-03-25T04:43:45.191Z,15.17
2019-03-25T04:46:13.285Z,13.97
2019-03-25T04:48:41.692Z,14.13
2019-03-25T04:51:09.533Z,13.93
2019-03-25T04:53:37.319Z,14.07
2019-03-25T04:56:05.108Z,14.20
2019-03-25T04:58:33.163Z,13.60
2019-03-25T05:01:00.955Z,13.60
2019-03-25T05:03:28.778Z,12.83
2019-03-25T05:05:56.558Z,13.10
2019-03-25T05:08:24.584Z,13.10
2019-03-25T05:10:52.428Z,14.37
2019-03-25T05:13:20.685Z,14.90
2019-03-25T05:15:48.739Z,15.37
2019-03-25T05:18:16.803Z,16.80
2019-03-25T05:20:44.583Z,18.00
2019-03-25T05:23:13.373Z,15.50
2019-03-25T05:25:41.507Z,15.73
2019-03-25T05:28:09.329Z,14.93
2019-03-25T05:30:37.104Z,15.10
2019-03-25T05:33:04.929Z,14.00
2019-03-25T05:35:32.658Z,16.73
2019-03-25T05:38:00.931Z,14.07
2019-03-25T05:40:28.801Z,12.23
2019-03-25T05:42:56.621Z,11.97
2019-03-25T05:45:24.500Z,11.50
2019-03-25T05:47:52.409Z,11.50
2019-03-25T05:50:20.501Z,11.60
2019-03-25T05:52:48.687Z,11.20
2019-03-25T05:55:16.469Z,11.00
2019-03-25T05:57:44.607Z,10.27
2019-03-25T06:00:12.616Z,10.77
2019-03-25T06:02:40.860Z,10.37
2019-03-25T06:05:09.259Z,9.10
2019-03-25T06:07:37.165Z,8.90
2019-03-25T06:10:05.280Z,9.00
2019-03-25T06:12:34.367Z,9.20
2019-03-25T06:15:02.420Z,9.07
2019-03-25T06:17:30.268Z,8.50
2019-03-25T06:19:58.139Z,9.03
2019-03-25T06:22:25.932Z,9.13
2019-03-25T06:24:54.936Z,9.53
2019-03-25T06:27:23.005Z,8.40
2019-03-25T06:29:51.173Z,8.60
2019-03-25T06:32:18.953Z,9.10
2019-03-25T06:34:46.745Z,8.27
2019-03-25T06:37:14.535Z,9.10
2019-03-25T06:39:42.429Z,8.13
2019-03-25T06:42:10.507Z,9.10
2019-03-25T06:44:39.101Z,9.07
2019-03-25T06:47:08.091Z,9.43
2019-03-25T06:49:35.928Z,8.87
2019-03-25T06:52:03.706Z,8.23
2019-03-25T06:54:31.792Z,7.87
2019-03-25T06:56:59.959Z,7.90
2019-03-25T06:59:27.757Z,8.00
2019-03-25T07:01:55.560Z,8.43
2019-03-25T07:04:23.365Z,8.63
2019-03-25T07:06:51.430Z,8.43
2019-03-25T07:09:19.240Z,8.17
2019-03-25T07:11:47.890Z,8.87
2019-03-25T07:14:18.940Z,8.30
2019-03-25T07:16:48.231Z,8.57
2019-03-25T07:19:16.307Z,7.70
2019-03-25T07:21:44.112Z,7.97
2019-03-25T07:24:12.240Z,7.40
2019-03-25T07:26:40.417Z,7.60
2019-03-25T07:29:08.118Z,7.43
2019-03-25T07:31:35.983Z,6.87
2019-03-25T07:34:04.023Z,7.40
2019-03-25T07:36:31.806Z,7.77
2019-03-25T07:39:00.286Z,7.80
2019-03-25T07:41:28.640Z,7.67
2019-03-25T07:43:56.717Z,6.93
2019-03-25T07:46:24.885Z,7.50
2019-03-25T07:48:52.687Z,7.00
2019-03-25T07:51:20.524Z,6.20
2019-03-25T07:53:48.297Z,6.80
2019-03-25T07:56:16.108Z,6.40
2019-03-25T07:58:44.432Z,6.70
2019-03-25T08:01:12.303Z,6.10
2019-03-25T08:03:40.088Z,6.33
2019-03-25T08:06:08.291Z,6.83
2019-03-25T08:08:36.410Z,7.40
2019-03-25T08:11:04.708Z,6.70
2019-03-25T08:13:32.592Z,6.73
2019-03-25T08:16:03.380Z,6.47
2019-03-25T08:18:30.517Z,7.03
2019-03-25T08:20:58.332Z,6.57
2019-03-25T08:23:29.472Z,7.10
2019-03-25T08:25:57.396Z,7.03
2019-03-25T08:28:25.165Z,6.93
2019-03-25T08:30:53.374Z,7.03
2019-03-25T08:33:22.448Z,7.33
2019-03-25T08:35:50.247Z,7.40
2019-03-25T08:38:18.283Z,7.30
2019-03-25T08:40:46.364Z,7.03
2019-03-25T08:43:15.447Z,7.53
2019-03-25T08:45:43.246Z,7.57
2019-03-25T08:48:11.801Z,6.57
2019-03-25T08:50:40.072Z,6.53
2019-03-25T08:53:08.353Z,6.30
2019-03-25T08:55:37.748Z,6.63
2019-03-25T08:58:12.122Z,6.33
2019-03-25T09:00:36.247Z,6.27
2019-03-25T09:03:04.869Z,6.67
2019-03-25T09:05:32.667Z,6.37
2019-03-25T09:08:00.441Z,6.60
2019-03-25T09:10:28.227Z,6.73
2019-03-25T09:12:56.399Z,6.43
2019-03-25T09:15:24.478Z,6.67
2019-03-25T09:17:52.380Z,6.67
2019-03-25T09:20:20.066Z,7.33
2019-03-25T09:22:48.160Z,6.20
2019-03-25T09:25:16.566Z,6.73
2019-03-25T09:27:44.732Z,6.40
2019-03-25T09:30:56.972Z,6.40
2019-03-25T09:33:24.984Z,6.60
2019-03-25T09:35:53.053Z,6.57
2019-03-25T09:38:21.286Z,5.73
2019-03-25T09:40:49.524Z,5.63
2019-03-25T09:43:17.592Z,5.97
2019-03-25T09:45:45.488Z,5.20
2019-03-25T09:48:13.630Z,4.67
2019-03-25T09:50:41.426Z,4.23
2019-03-25T09:53:09.567Z,3.93
2019-03-25T09:55:37.347Z,3.33
2019-03-25T09:58:05.146Z,2.90
2019-03-25T10:00:33.256Z,2.67
2019-03-25T10:03:01.158Z,3.00
2019-03-25T10:05:29.206Z,2.80
2019-03-25T10:07:58.537Z,2.80
2019-03-25T10:10:26.582Z,2.80
2019-03-25T10:12:56.735Z,2.37
2019-03-25T10:15:24.580Z,2.47
2019-03-25T10:17:52.844Z,2.20
2019-03-25T10:20:22.147Z,2.20
2019-03-25T10:22:50.331Z,2.43
2019-03-25T10:25:18.423Z,2.20
2019-03-25T10:27:48.043Z,2.60
2019-03-25T10:30:17.288Z,2.60
2019-03-25T10:32:45.271Z,2.50
2019-03-25T10:35:13.979Z,2.30
2019-03-25T10:37:42.754Z,2.53
2019-03-25T10:40:11.004Z,2.97
2019-03-25T10:42:38.820Z,3.00
2019-03-25T10:45:08.033Z,2.83
2019-03-25T10:47:36.242Z,3.00
2019-03-25T10:50:05.778Z,2.83
2019-03-25T10:52:33.781Z,2.90
2019-03-25T10:55:01.681Z,2.80
2019-03-25T10:57:30.593Z,2.30
2019-03-25T10:59:58.771Z,2.60
2019-03-25T11:02:26.568Z,2.00
2019-03-25T11:04:55.551Z,1.40
2019-03-25T11:07:23.506Z,1.20
2019-03-25T11:09:52.476Z,1.30
2019-03-25T11:12:21.497Z,1.13
2019-03-25T11:14:51.376Z,1.10
2019-03-25T11:17:20.434Z,1.20
2019-03-25T11:19:50.007Z,1.27
2019-03-25T11:22:18.254Z,1.20
2019-03-25T11:24:46.036Z,0.83
2019-03-25T11:27:13.923Z,0.93
2019-03-25T11:29:42.216Z,1.07
2019-03-25T11:32:10.586Z,1.00
2019-03-25T11:34:41.792Z,0.90
2019-03-25T11:37:10.668Z,0.80
2019-03-25T11:39:45.661Z,0.80
2019-03-25T11:42:13.508Z,0.80
2019-03-25T11:44:52.541Z,0.90
2019-03-25T11:47:24.068Z,0.80
2019-03-25T11:50:01.665Z,1.10
2019-03-25T11:52:49.297Z,0.90
2019-03-25T11:55:25.022Z,0.90
2019-03-25T11:57:57.444Z,0.80
2019-03-25T12:00:32.638Z,1.00
2019-03-25T12:03:07.649Z,1.00
2019-03-25T12:05:41.321Z,0.87
2019-03-25T12:08:12.614Z,0.90
2019-03-25T12:13:56.380Z,1.13
2019-03-25T12:16:31.613Z,1.20
2019-03-25T12:19:02.560Z,1.00
2019-03-25T12:21:30.412Z,1.00
2019-03-25T12:23:58.226Z,0.80
2019-03-25T12:26:26.409Z,0.97
2019-03-25T12:28:54.472Z,0.90
2019-03-25T12:31:22.540Z,1.00
2019-03-25T12:33:50.329Z,1.20
2019-03-25T12:36:18.505Z,1.20
2019-03-25T12:38:46.409Z,3.90
2019-03-25T12:41:14.723Z,3.03
2019-03-25T12:43:42.502Z,35.90
2019-03-25T12:46:10.284Z,10.87
2019-03-25T12:48:38.428Z,13.03
2019-03-25T12:51:06.213Z,22.60
2019-03-25T12:53:35.284Z,0.90
2019-03-25T12:56:03.463Z,0.60
2019-03-25T12:58:32.293Z,0.60
2019-03-25T13:01:00.068Z,0.73
2019-03-25T13:03:28.179Z,0.60
2019-03-25T13:05:56.247Z,0.53
2019-03-25T13:08:32.831Z,0.60
2019-03-25T13:10:54.136Z,0.73
2019-03-25T13:13:21.956Z,0.87
2019-03-25T13:15:49.731Z,0.70
2019-03-25T13:18:17.945Z,0.70
2019-03-25T13:20:46.008Z,0.90
2019-03-25T13:23:14.187Z,0.90
2019-03-25T13:25:41.961Z,0.90
2019-03-25T13:28:10.022Z,1.00
2019-03-25T13:30:38.106Z,0.90
2019-03-25T13:33:06.161Z,1.10
2019-03-25T13:35:33.977Z,0.90
2019-03-25T13:38:02.008Z,1.40
2019-03-25T13:40:30.586Z,1.20
2019-03-25T13:42:58.363Z,1.10
2019-03-25T13:45:26.412Z,0.80
2019-03-25T13:47:54.507Z,0.80
2019-03-25T13:50:22.660Z,0.70
2019-03-25T13:52:50.451Z,0.70
2019-03-25T13:55:18.304Z,0.70
2019-03-25T13:57:46.369Z,11.23
2019-03-25T14:00:15.184Z,1.60
2019-03-25T14:02:42.963Z,0.93
2019-03-25T14:05:10.744Z,0.50
2019-03-25T14:07:38.543Z,1.00
2019-03-25T14:10:06.921Z,0.73
2019-03-25T14:12:34.996Z,0.77
2019-03-25T14:15:03.270Z,0.60
2019-03-25T14:17:31.386Z,0.60
2019-03-25T14:19:59.328Z,0.77
2019-03-25T14:22:27.100Z,0.60
2019-03-25T14:24:54.939Z,0.70
2019-03-25T14:27:22.724Z,0.53
2019-03-25T14:29:51.183Z,0.60
2019-03-25T14:32:19.280Z,0.50
2019-03-25T14:34:47.059Z,0.70
2019-03-25T14:37:15.197Z,0.60
2019-03-25T14:39:43.264Z,0.80
2019-03-25T14:42:11.436Z,0.60
2019-03-25T14:44:39.296Z,11.43
2019-03-25T14:47:07.072Z,1.97
2019-03-25T14:49:35.136Z,1.60
2019-03-25T14:52:02.926Z,0.90
2019-03-25T14:54:31.596Z,0.80
2019-03-25T14:56:59.755Z,1.00
2019-03-25T14:59:27.868Z,1.30
2019-03-25T15:01:56.107Z,1.33
2019-03-25T15:04:23.896Z,1.53
2019-03-25T15:06:51.944Z,0.93
2019-03-25T15:09:19.724Z,1.10
2019-03-25T15:11:47.583Z,1.30
2019-03-25T15:14:16.160Z,1.00
2019-03-25T15:16:43.945Z,1.20
2019-03-25T15:19:12.096Z,1.20
2019-03-25T15:21:39.873Z,1.60
2019-03-25T15:24:07.652Z,1.33
2019-03-25T15:26:35.799Z,1.57
2019-03-25T15:29:03.864Z,1.37
2019-03-25T15:31:31.720Z,1.30
2019-03-25T15:33:59.497Z,1.50
2019-03-25T15:36:27.392Z,1.17
2019-03-25T15:38:55.189Z,0.93
2019-03-25T15:41:23.137Z,1.40
2019-03-25T15:43:52.721Z,1.23
2019-03-25T15:46:21.900Z,1.50
2019-03-25T15:48:49.678Z,1.10
2019-03-25T15:51:19.076Z,1.07
2019-03-25T15:53:46.769Z,1.30
2019-03-25T15:56:15.009Z,1.03
2019-03-25T15:58:42.924Z,1.27
2019-03-25T16:01:11.573Z,1.10
2019-03-25T16:03:39.623Z,0.97
2019-03-25T16:06:07.471Z,1.00
2019-03-25T16:08:35.319Z,0.77
2019-03-25T16:11:03.715Z,1.00
2019-03-25T16:13:31.967Z,1.00
2019-03-25T16:15:59.780Z,2.07
2019-03-25T16:18:35.687Z,2.50
2019-03-25T16:21:03.914Z,1.60
2019-03-25T16:23:31.783Z,1.10
2019-03-25T16:25:59.944Z,1.50
2019-03-25T16:28:28.935Z,1.40
2019-03-25T16:30:59.035Z,1.60
2019-03-25T16:33:27.735Z,1.43
2019-03-25T16:35:55.556Z,1.10
2019-03-25T16:38:23.704Z,1.10
2019-03-25T16:41:10.965Z,1.47
2019-03-25T16:43:39.032Z,1.37
2019-03-25T16:46:06.884Z,1.20
2019-03-25T16:48:35.009Z,1.30
2019-03-25T16:51:03.202Z,1.37
2019-03-25T16:53:31.773Z,0.80
2019-03-25T16:55:59.835Z,1.00
2019-03-25T16:58:27.603Z,1.27
2019-03-25T17:00:56.285Z,1.00
2019-03-25T17:03:24.267Z,0.80
2019-03-25T17:05:52.116Z,1.40
2019-03-25T17:08:19.909Z,1.40
2019-03-25T17:10:47.872Z,0.90
2019-03-25T17:13:17.436Z,1.17
2019-03-25T17:15:45.293Z,0.90
2019-03-25T17:18:13.068Z,1.00
2019-03-25T17:20:41.477Z,0.50
2019-03-25T17:23:09.648Z,0.50
2019-03-25T17:25:37.720Z,0.57
2019-03-25T17:28:05.590Z,0.90
2019-03-25T17:30:33.384Z,0.93
2019-03-25T17:33:02.078Z,1.07
2019-03-25T17:35:30.597Z,1.17
2019-03-25T17:37:58.969Z,1.67
2019-03-25T17:40:32.114Z,1.23
2019-03-25T17:43:01.642Z,1.10
2019-03-25T17:45:29.675Z,1.90
2019-03-25T17:47:57.545Z,1.90
2019-03-25T17:50:25.621Z,1.80
2019-03-25T17:52:54.601Z,1.40
2019-03-25T17:55:22.487Z,1.47
2019-03-25T17:57:50.871Z,1.03
2019-03-25T18:00:57.672Z,1.20
2019-03-25T18:03:25.831Z,1.10
2019-03-25T18:05:54.200Z,5.57
2019-03-25T18:08:22.081Z,6.53
2019-03-25T18:10:49.884Z,6.73
2019-03-25T18:13:22.226Z,8.07
2019-03-25T18:15:47.395Z,19.87
2019-03-25T18:18:15.487Z,13.50
2019-03-25T18:20:43.564Z,2.40
2019-03-25T18:23:13.237Z,3.03
2019-03-25T18:25:41.270Z,2.50
2019-03-25T18:28:09.317Z,2.00
2019-03-25T18:30:37.116Z,3.00
2019-03-25T18:33:05.096Z,2.10
2019-03-25T18:35:33.329Z,2.70
2019-03-25T18:38:01.805Z,2.50
2019-03-25T18:40:29.613Z,3.00
2019-03-25T18:42:58.466Z,2.10
2019-03-25T18:45:26.548Z,1.67
2019-03-25T18:47:54.542Z,3.73
2019-03-25T18:50:22.428Z,2.70
2019-03-25T18:52:51.160Z,1.20
2019-03-25T18:55:19.183Z,2.50
2019-03-25T18:57:47.159Z,9.57
2019-03-25T19:00:29.516Z,2.53
2019-03-25T19:02:57.798Z,2.40
2019-03-25T19:05:25.738Z,2.67
2019-03-25T19:07:54.080Z,2.53
2019-03-25T19:10:26.819Z,3.00
2019-03-25T19:12:55.311Z,2.60
2019-03-25T19:15:23.462Z,2.20
2019-03-25T19:17:51.261Z,2.13
2019-03-25T19:20:19.561Z,2.90
2019-03-25T19:22:47.476Z,2.17
2019-03-25T19:25:15.288Z,2.27
2019-03-25T19:27:43.196Z,3.10
2019-03-25T19:30:11.279Z,3.27
2019-03-25T19:32:39.138Z,2.77
2019-03-25T19:35:08.777Z,3.60
2019-03-25T19:37:36.953Z,3.47
2019-03-25T19:40:05.185Z,2.97
2019-03-25T19:42:33.386Z,2.60
2019-03-25T19:45:02.104Z,3.30
2019-03-25T19:47:29.935Z,3.53
2019-03-25T19:49:58.416Z,3.40
2019-03-25T19:52:26.216Z,3.90
2019-03-25T19:54:54.489Z,3.90
2019-03-25T19:57:22.376Z,4.33
2019-03-25T19:59:50.264Z,4.20
2019-03-25T20:02:19.203Z,4.20
2019-03-25T20:04:47.642Z,4.50
2019-03-25T20:07:15.513Z,4.67
2019-03-25T20:09:44.940Z,4.27
2019-03-25T20:12:13.103Z,4.03
2019-03-25T20:14:41.297Z,4.17
2019-03-25T20:17:09.357Z,3.93
2019-03-25T20:19:38.780Z,5.07
2019-03-25T20:22:06.710Z,5.80
2019-03-25T20:24:35.842Z,6.30
2019-03-25T20:27:03.821Z,4.67
2019-03-25T20:29:32.799Z,4.70
2019-03-25T20:32:00.722Z,5.20
2019-03-25T20:34:29.049Z,4.40
2019-03-25T20:36:56.934Z,4.80
2019-03-25T20:39:25.181Z,4.50
2019-03-25T20:41:53.418Z,4.03
2019-03-25T20:44:23.171Z,4.40
2019-03-25T20:46:51.392Z,4.93
2019-03-25T20:49:19.403Z,4.47
2019-03-25T20:51:47.296Z,5.63
2019-03-25T20:54:15.689Z,5.40
2019-03-25T20:56:44.957Z,8.43
2019-03-25T20:59:13.140Z,5.10
2019-03-25T21:01:42.118Z,5.57
2019-03-25T21:04:10.412Z,7.90
2019-03-25T21:06:38.664Z,5.17
2019-03-25T21:09:06.992Z,5.97
2019-03-25T21:11:35.954Z,6.33
2019-03-25T21:14:03.788Z,6.47
2019-03-25T21:16:34.511Z,6.93
2019-03-25T21:19:04.447Z,6.73
2019-03-25T21:21:32.369Z,5.10
2019-03-25T21:24:00.353Z,5.63
2019-03-25T21:26:28.212Z,5.90
2019-03-25T21:28:56.265Z,6.27
2019-03-25T21:31:24.658Z,5.60
2019-03-25T21:33:53.205Z,7.13
2019-03-25T21:36:21.468Z,6.37
2019-03-25T21:38:49.302Z,6.37
2019-03-25T21:41:17.623Z,9.93
2019-03-25T21:43:45.415Z,10.50
2019-03-25T21:46:14.451Z,7.80
2019-03-25T21:48:42.879Z,7.20
2019-03-25T21:51:12.166Z,6.83
2019-03-25T21:53:40.142Z,7.20
2019-03-25T21:56:09.293Z,21.73
2019-03-25T21:58:39.713Z,7.10
2019-03-25T22:01:07.734Z,6.77
2019-03-25T22:03:36.018Z,7.87
2019-03-25T22:06:04.165Z,6.50
2019-03-25T22:08:32.444Z,7.10
2019-03-25T22:11:00.361Z,7.07
2019-03-25T22:13:30.060Z,7.00
2019-03-25T22:15:58.088Z,7.50
2019-03-25T22:18:30.557Z,7.40
2019-03-25T22:20:58.023Z,6.50
2019-03-25T22:23:27.735Z,7.53
2019-03-25T22:25:55.924Z,6.40
2019-03-25T22:28:24.493Z,7.40
2019-03-25T22:30:52.460Z,8.17
2019-03-25T22:33:25.924Z,7.80
2019-03-25T22:35:52.805Z,7.30
2019-03-25T22:38:20.583Z,6.50
2019-03-25T22:40:49.061Z,7.13
2019-03-25T22:43:17.623Z,7.60
2019-03-25T22:45:45.618Z,7.50
2019-03-25T22:48:13.791Z,8.30
2019-03-25T22:50:41.986Z,7.93
2019-03-25T22:53:09.892Z,8.40
2019-03-25T22:55:37.762Z,7.73
2019-03-25T22:58:05.636Z,8.23
2019-03-25T23:00:47.158Z,8.50
2019-03-25T23:03:16.537Z,7.87
2019-03-25T23:05:44.894Z,7.93
2019-03-25T23:08:13.051Z,7.53
2019-03-25T23:10:41.297Z,7.53
2019-03-25T23:13:09.165Z,8.20
2019-03-25T23:15:37.307Z,8.80
2019-03-25T23:18:07.327Z,8.73
2019-03-25T23:20:36.117Z,7.27
2019-03-25T23:23:03.921Z,6.97
2019-03-25T23:25:33.618Z,7.17
2019-03-25T23:28:01.972Z,6.57
2019-03-25T23:30:29.872Z,6.57
2019-03-25T23:32:59.131Z,6.80
2019-03-25T23:35:26.907Z,6.80
2019-03-25T23:37:54.691Z,7.17
2019-03-25T23:40:22.901Z,7.73
2019-03-25T23:42:51.304Z,6.90
2019-03-25T23:45:19.384Z,6.90
2019-03-25T23:47:47.564Z,7.80
2019-03-25T23:50:17.865Z,7.10
2019-03-25T23:52:45.668Z,6.80
2019-03-25T23:55:13.460Z,7.20
2019-03-25T23:57:41.253Z,6.97
